<?xml version="1.0" encoding="utf-8"?>
<gpx xmlns:xsi="http://www.w3.org/2001/XMLSchema-instance" xmlns:xsd="http://www.w3.org/2001/XMLSchema" version="1.1" creator="Shapelink.com" xmlns="http://www.topografix.com/GPX/1/1" xmlns:gpxtpx="http://www.garmin.com/xmlschemas/TrackPointExtension/v1">
  <metadata>
    <name>Övrigt 2.02 km, 2019-05-19</name>
    <desc></desc>
    <author><name>Marian Moron</name></author> 
    <time>2019-05-19T20:25:57Z</time>
  </metadata>
  <trk>
    <name>Övrigt 2.02 km, 2019-05-19</name>
    <trkseg>
      <trkpt lat="51.229893431273" lon="4.457838832271">
        <ele>9.2</ele>
        <time>2019-05-19T20:25:57Z</time>
      </trkpt>
      <trkpt lat="51.23000851476" lon="4.458516005972">
        <ele>9</ele>
        <time>2019-05-19T20:26:42Z</time>
      </trkpt>
      <trkpt lat="51.23000851476" lon="4.458533021229">
        <ele>9</ele>
        <time>2019-05-19T20:26:43Z</time>
      </trkpt>
      <trkpt lat="51.230022428714" lon="4.458767127696">
        <ele>7.2</ele>
        <time>2019-05-19T20:27:05Z</time>
      </trkpt>
      <trkpt lat="51.230390142667" lon="4.458957313007">
        <ele>3.6</ele>
        <time>2019-05-19T20:27:42Z</time>
      </trkpt>
      <trkpt lat="51.230506818715" lon="4.459293594835">
        <ele>0</ele>
        <time>2019-05-19T20:28:39Z</time>
      </trkpt>
      <trkpt lat="51.23055920559" lon="4.459523761809">
        <ele>0</ele>
        <time>2019-05-19T20:29:07Z</time>
      </trkpt>
      <trkpt lat="51.230658363467" lon="4.45963264269">
        <ele>0</ele>
        <time>2019-05-19T20:29:37Z</time>
      </trkpt>
      <trkpt lat="51.230789121107" lon="4.45969550694">
        <ele>0</ele>
        <time>2019-05-19T20:29:52Z</time>
      </trkpt>
      <trkpt lat="51.231096988294" lon="4.459663320444">
        <ele>0</ele>
        <time>2019-05-19T20:30:17Z</time>
      </trkpt>
      <trkpt lat="51.231119703243" lon="4.459726184694">
        <ele>0</ele>
        <time>2019-05-19T20:30:22Z</time>
      </trkpt>
      <trkpt lat="51.23116689334" lon="4.460155254155">
        <ele>11.8</ele>
        <time>2019-05-19T20:31:14Z</time>
      </trkpt>
      <trkpt lat="51.231306619613" lon="4.460465300636">
        <ele>15.2</ele>
        <time>2019-05-19T20:31:37Z</time>
      </trkpt>
      <trkpt lat="51.231329334562" lon="4.460719020749">
        <ele>16.4</ele>
        <time>2019-05-19T20:33:12Z</time>
      </trkpt>
      <trkpt lat="51.231312319305" lon="4.46074743539">
        <ele>16.4</ele>
        <time>2019-05-19T20:33:14Z</time>
      </trkpt>
      <trkpt lat="51.231282982655" lon="4.460834523331">
        <ele>15.8</ele>
        <time>2019-05-19T20:33:22Z</time>
      </trkpt>
      <trkpt lat="51.231300836102" lon="4.460888838043">
        <ele>14.8</ele>
        <time>2019-05-19T20:33:26Z</time>
      </trkpt>
      <trkpt lat="51.231340147213" lon="4.461186814588">
        <ele>5</ele>
        <time>2019-05-19T20:34:02Z</time>
      </trkpt>
      <trkpt lat="51.231445926791" lon="4.461592666186">
        <ele>0</ele>
        <time>2019-05-19T20:34:48Z</time>
      </trkpt>
      <trkpt lat="51.231479202934" lon="4.46158981634">
        <ele>0</ele>
        <time>2019-05-19T20:34:52Z</time>
      </trkpt>
      <trkpt lat="51.231687912244" lon="4.461858623873">
        <ele>0</ele>
        <time>2019-05-19T20:36:06Z</time>
      </trkpt>
      <trkpt lat="51.231660838707" lon="4.462057358722">
        <ele>0</ele>
        <time>2019-05-19T20:36:25Z</time>
      </trkpt>
      <trkpt lat="51.231657066852" lon="4.462150816907">
        <ele>0</ele>
        <time>2019-05-19T20:36:32Z</time>
      </trkpt>
      <trkpt lat="51.231579869553" lon="4.462422809562">
        <ele>4</ele>
        <time>2019-05-19T20:37:28Z</time>
      </trkpt>
      <trkpt lat="51.231623203976" lon="4.462961262818">
        <ele>7.6</ele>
        <time>2019-05-19T20:38:12Z</time>
      </trkpt>
      <trkpt lat="51.23150049296" lon="4.463442551516">
        <ele>1.4</ele>
        <time>2019-05-19T20:38:59Z</time>
      </trkpt>
      <trkpt lat="51.231459673107" lon="4.463590408232">
        <ele>0</ele>
        <time>2019-05-19T20:39:12Z</time>
      </trkpt>
      <trkpt lat="51.231398736694" lon="4.463698199466">
        <ele>0</ele>
        <time>2019-05-19T20:39:19Z</time>
      </trkpt>
      <trkpt lat="51.231343080878" lon="4.463768020693">
        <ele>0</ele>
        <time>2019-05-19T20:39:25Z</time>
      </trkpt>
      <trkpt lat="51.23131022383" lon="4.463774642394">
        <ele>0</ele>
        <time>2019-05-19T20:40:28Z</time>
      </trkpt>
      <trkpt lat="51.231372333709" lon="4.463544223963">
        <ele>0</ele>
        <time>2019-05-19T20:41:11Z</time>
      </trkpt>
      <trkpt lat="51.231361018144" lon="4.463263095037">
        <ele>1.8</ele>
        <time>2019-05-19T20:42:24Z</time>
      </trkpt>
      <trkpt lat="51.231331765313" lon="4.463978322564">
        <ele>2.6</ele>
        <time>2019-05-19T20:42:57Z</time>
      </trkpt>
      <trkpt lat="51.231309720916" lon="4.464384257981">
        <ele>2.2</ele>
        <time>2019-05-19T20:43:18Z</time>
      </trkpt>
      <trkpt lat="51.231183321864" lon="4.464407894939">
        <ele>1</ele>
        <time>2019-05-19T20:43:33Z</time>
      </trkpt>
      <trkpt lat="51.230973439088" lon="4.464504370608">
        <ele>1.2</ele>
        <time>2019-05-19T20:44:14Z</time>
      </trkpt>
      <trkpt lat="51.230912167399" lon="4.464522559331">
        <ele>1.2</ele>
        <time>2019-05-19T20:44:20Z</time>
      </trkpt>
      <trkpt lat="51.230788702012" lon="4.464539909864">
        <ele>2.6</ele>
        <time>2019-05-19T20:44:30Z</time>
      </trkpt>
      <trkpt lat="51.230766825253" lon="4.464548543221">
        <ele>2.6</ele>
        <time>2019-05-19T20:44:32Z</time>
      </trkpt>
      <trkpt lat="51.230565240558" lon="4.464447457507">
        <ele>0</ele>
        <time>2019-05-19T20:44:51Z</time>
      </trkpt>
      <trkpt lat="51.230517212271" lon="4.46431058108">
        <ele>1.2</ele>
        <time>2019-05-19T20:45:03Z</time>
      </trkpt>
      <trkpt lat="51.230450911442" lon="4.46408175521">
        <ele>0.2</ele>
        <time>2019-05-19T20:45:23Z</time>
      </trkpt>
      <trkpt lat="51.230289056953" lon="4.463895257935">
        <ele>3.6</ele>
        <time>2019-05-19T20:45:55Z</time>
      </trkpt>
      <trkpt lat="51.230272628429" lon="4.463915542133">
        <ele>3.4</ele>
        <time>2019-05-19T20:45:57Z</time>
      </trkpt>
      <trkpt lat="51.230041455627" lon="4.464152498446">
        <ele>2.2</ele>
        <time>2019-05-19T20:46:24Z</time>
      </trkpt>
      <trkpt lat="51.230008263303" lon="4.46418149982">
        <ele>2.4</ele>
        <time>2019-05-19T20:46:28Z</time>
      </trkpt>
      <trkpt lat="51.229562849137" lon="4.464298427325">
        <ele>7.8</ele>
        <time>2019-05-19T20:47:11Z</time>
      </trkpt>
      <trkpt lat="51.22911500422" lon="4.464319046799">
        <ele>8.6</ele>
        <time>2019-05-19T20:47:52Z</time>
      </trkpt>
      <trkpt lat="51.228674619194" lon="4.46421838018">
        <ele>0.2</ele>
        <time>2019-05-19T20:48:36Z</time>
      </trkpt>
      <trkpt lat="51.228606641985" lon="4.464238412921">
        <ele>0</ele>
        <time>2019-05-19T20:48:43Z</time>
      </trkpt>
      <trkpt lat="51.228583005027" lon="4.464216536162">
        <ele>0</ele>
        <time>2019-05-19T20:48:46Z</time>
      </trkpt>
      <trkpt lat="51.2284712743" lon="4.463729212496">
        <ele>0</ele>
        <time>2019-05-19T20:49:19Z</time>
      </trkpt>
      <trkpt lat="51.228451493016" lon="4.463499716074">
        <ele>0</ele>
        <time>2019-05-19T20:49:35Z</time>
      </trkpt>
      <trkpt lat="51.228355939356" lon="4.463412795771">
        <ele>0</ele>
        <time>2019-05-19T20:49:47Z</time>
      </trkpt>
      <trkpt lat="51.228000127701" lon="4.463071317165">
        <ele>1.4</ele>
        <time>2019-05-19T20:51:15Z</time>
      </trkpt>
      <trkpt lat="51.22784933732" lon="4.462491541142">
        <ele>7.4</ele>
        <time>2019-05-19T20:52:00Z</time>
      </trkpt>
      <trkpt lat="51.227805835259" lon="4.461766171516">
        <ele>6</ele>
        <time>2019-05-19T20:52:45Z</time>
      </trkpt>
      <trkpt lat="51.227825951819" lon="4.461182372181">
        <ele>3.8</ele>
        <time>2019-05-19T20:53:24Z</time>
      </trkpt>
      <trkpt lat="51.227790580201" lon="4.460660934182">
        <ele>0.2</ele>
        <time>2019-05-19T20:53:59Z</time>
      </trkpt>
      <trkpt lat="51.22809492699" lon="4.460301434491">
        <ele>3.2</ele>
        <time>2019-05-19T20:54:58Z</time>
      </trkpt>
      <trkpt lat="51.22832962019" lon="4.459760969579">
        <ele>0</ele>
        <time>2019-05-19T20:55:43Z</time>
      </trkpt>
      <trkpt lat="51.228402291263" lon="4.459437847334">
        <ele>0</ele>
        <time>2019-05-19T20:56:06Z</time>
      </trkpt>
      <trkpt lat="51.228497090552" lon="4.459334666145">
        <ele>0</ele>
        <time>2019-05-19T20:56:19Z</time>
      </trkpt>
      <trkpt lat="51.228495833267" lon="4.458708538215">
        <ele>0</ele>
        <time>2019-05-19T20:57:00Z</time>
      </trkpt>
      <trkpt lat="51.228507735565" lon="4.458229764087">
        <ele>0</ele>
        <time>2019-05-19T20:57:34Z</time>
      </trkpt>
      <trkpt lat="51.228525672831" lon="4.458110657288">
        <ele>0</ele>
        <time>2019-05-19T20:57:43Z</time>
      </trkpt>
      <trkpt lat="51.228443111116" lon="4.457893230802">
        <ele>0</ele>
        <time>2019-05-19T20:57:54Z</time>
      </trkpt>
      <trkpt lat="51.228510836868" lon="4.457281938835">
        <ele>0</ele>
        <time>2019-05-19T20:58:52Z</time>
      </trkpt>
      <trkpt lat="51.228571689462" lon="4.457245812846">
        <ele>0.8</ele>
        <time>2019-05-19T20:58:58Z</time>
      </trkpt>
      <trkpt lat="51.228796324382" lon="4.457018747175">
        <ele>2.2</ele>
        <time>2019-05-19T20:59:29Z</time>
      </trkpt>
      <trkpt lat="51.228991119738" lon="4.456945489369">
        <ele>2.8</ele>
        <time>2019-05-19T20:59:48Z</time>
      </trkpt>
      <trkpt lat="51.229035962903" lon="4.456900394747">
        <ele>1.4</ele>
        <time>2019-05-19T20:59:57Z</time>
      </trkpt>
      <trkpt lat="51.229063958449" lon="4.45687667397">
        <ele>1.8</ele>
        <time>2019-05-19T21:00:00Z</time>
      </trkpt>
      <trkpt lat="51.229295717984" lon="4.456713897472">
        <ele>10.2</ele>
        <time>2019-05-19T21:00:27Z</time>
      </trkpt>
      <trkpt lat="51.229430079841" lon="4.456660001855">
        <ele>11.6</ele>
        <time>2019-05-19T21:00:49Z</time>
      </trkpt>
      <trkpt lat="51.22975621957" lon="4.456953116898">
        <ele>4.2</ele>
        <time>2019-05-19T21:01:24Z</time>
      </trkpt>
      <trkpt lat="51.22979142355" lon="4.457190827582">
        <ele>1.4</ele>
        <time>2019-05-19T21:01:41Z</time>
      </trkpt>
      <trkpt lat="51.229842469321" lon="4.457647892589">
        <ele>0</ele>
        <time>2019-05-19T21:02:16Z</time>
      </trkpt>
      <trkpt lat="51.230019914144" lon="4.457722072404">
        <ele>0</ele>
        <time>2019-05-19T21:02:42Z</time>
      </trkpt>
      <trkpt lat="51.230071965743" lon="4.457718635825">
        <ele>0</ele>
        <time>2019-05-19T21:02:48Z</time>
      </trkpt>
      <trkpt lat="51.230036677944" lon="4.457749732674">
        <ele>2</ele>
        <time>2019-05-19T21:03:03Z</time>
      </trkpt>
      <trkpt lat="51.230005245819" lon="4.457757863117">
        <ele>2.6</ele>
        <time>2019-05-19T21:03:06Z</time>
      </trkpt>
      <trkpt lat="51.229702826867" lon="4.457931368447">
        <ele>2</ele>
        <time>2019-05-19T21:03:38Z</time>
      </trkpt>
    </trkseg>
  </trk>
</gpx>